Time;durP1;ratioP1;P1;durP2;ratioP2;P2;SDS_P1;SDS_P2;PMS_P1;PMS_P2;Temp;Humidity;BMP_temperature;BMP_pressure;BME280_temperature;BME280_humidity;BME280_pressure;Samples;Min_cycle;Max_cycle;Signal;HPM_P1;HPM_P2
2023/05/18 00:02:02;;;;;;;6.72;2.42;;;6.60;99.90;;;;;;5014123;28;20022;-80
2023/05/18 00:04:33;;;;;;;8.63;2.15;;;6.60;99.90;;;;;;5013137;28;20038;-81
2023/05/18 00:07:03;;;;;;;10.07;2.90;;;6.60;99.90;;;;;;5013688;28;20026;-79
2023/05/18 00:09:32;;;;;;;5.22;2.40;;;6.50;99.90;;;;;;5010623;28;20037;-80
2023/05/18 00:11:59;;;;;;;9.90;2.85;;;6.60;99.90;;;;;;5013354;28;20034;-79
2023/05/18 00:14:26;;;;;;;7.25;2.65;;;6.70;99.90;;;;;;5012673;28;20053;-82
2023/05/18 00:16:52;;;;;;;7.20;2.22;;;6.70;99.90;;;;;;5013783;28;20022;-80
2023/05/18 00:19:19;;;;;;;4.93;1.88;;;6.70;99.90;;;;;;5013374;28;20634;-82
2023/05/18 00:21:47;;;;;;;7.40;3.35;;;6.60;99.90;;;;;;5013956;28;20034;-82
2023/05/18 00:24:14;;;;;;;7.15;2.42;;;6.60;99.90;;;;;;5006720;28;20692;-83
2023/05/18 00:26:42;;;;;;;8.60;2.33;;;6.50;99.90;;;;;;5015406;28;20033;-84
2023/05/18 00:29:09;;;;;;;6.95;2.00;;;6.50;99.90;;;;;;5013062;28;20061;-80
2023/05/18 00:31:37;;;;;;;7.07;1.98;;;6.50;99.90;;;;;;5013649;28;20036;-82
2023/05/18 00:34:10;;;;;;;10.82;2.53;;;6.50;99.90;;;;;;5006517;28;20414;-79
2023/05/18 00:36:36;;;;;;;7.07;2.30;;;6.50;99.90;;;;;;5013213;28;20073;-81
2023/05/18 00:39:04;;;;;;;7.90;2.90;;;6.40;99.90;;;;;;5012956;28;20463;-81
2023/05/18 00:41:31;;;;;;;4.80;2.10;;;6.30;99.90;;;;;;5009675;28;20041;-83
2023/05/18 00:43:59;;;;;;;6.78;2.38;;;6.20;99.90;;;;;;5010383;28;20065;-80
2023/05/18 00:46:27;;;;;;;11.98;2.67;;;6.10;99.90;;;;;;5011872;28;20045;-80
2023/05/18 00:48:55;;;;;;;9.05;2.53;;;6.00;99.90;;;;;;5013374;28;20455;-82
2023/05/18 00:51:23;;;;;;;4.75;1.80;;;5.90;99.90;;;;;;5012838;28;20037;-80
2023/05/18 00:53:52;;;;;;;5.63;2.42;;;5.90;99.90;;;;;;5012683;28;20048;-80
2023/05/18 00:56:22;;;;;;;6.05;2.88;;;5.90;99.90;;;;;;5012251;28;20022;-81
2023/05/18 00:58:51;;;;;;;7.18;2.58;;;5.90;99.90;;;;;;5011914;28;20375;-81
2023/05/18 01:01:19;;;;;;;5.32;2.30;;;5.80;99.90;;;;;;5012416;28;20030;-81
2023/05/18 01:03:45;;;;;;;6.10;2.28;;;5.90;99.90;;;;;;5012561;28;20026;-82
2023/05/18 01:06:13;;;;;;;4.97;2.05;;;5.90;99.90;;;;;;5010630;28;20038;-81
2023/05/18 01:08:40;;;;;;;9.40;2.70;;;5.90;99.90;;;;;;5013040;28;20029;-82
2023/05/18 01:11:18;;;;;;;6.22;2.65;;;5.90;99.90;;;;;;5011024;28;20037;-81
2023/05/18 01:14:00;;;;;;;7.15;2.40;;;5.90;99.90;;;;;;5011968;28;20026;-81
2023/05/18 01:16:33;;;;;;;5.53;2.08;;;5.80;99.90;;;;;;5012868;28;20048;-81
2023/05/18 01:19:12;;;;;;;8.60;2.75;;;5.80;99.90;;;;;;5011658;28;20073;-80
2023/05/18 01:21:57;;;;;;;4.93;2.40;;;5.80;99.90;;;;;;5009317;28;20026;-81
2023/05/18 01:24:29;;;;;;;7.38;2.20;;;5.70;99.90;;;;;;5010421;28;20463;-81
2023/05/18 01:26:59;;;;;;;7.32;2.40;;;5.70;99.90;;;;;;5010952;28;20045;-80
2023/05/18 01:29:28;;;;;;;9.65;3.40;;;5.60;99.90;;;;;;5010631;28;20046;-81
2023/05/18 01:31:54;;;;;;;8.95;2.83;;;5.60;99.90;;;;;;5012704;28;20037;-81
2023/05/18 01:34:20;;;;;;;7.32;2.38;;;5.60;99.90;;;;;;5005272;28;20049;-81
2023/05/18 01:36:46;;;;;;;7.75;2.10;;;5.50;99.90;;;;;;5008887;28;20064;-81
2023/05/18 01:39:13;;;;;;;5.97;2.20;;;5.40;99.90;;;;;;5011963;28;20030;-81
2023/05/18 01:42:10;;;;;;;12.45;2.40;;;5.30;99.90;;;;;;5010671;28;20057;-81
2023/05/18 01:44:46;;;;;;;10.43;2.83;;;5.10;99.90;;;;;;5022336;28;20046;-81
2023/05/18 01:47:14;;;;;;;8.40;3.22;;;5.10;99.90;;;;;;5011645;28;20034;-82
2023/05/18 01:50:01;;;;;;;8.13;3.10;;;5.00;99.90;;;;;;5012391;28;20033;-79
2023/05/18 01:52:35;;;;;;;7.07;2.83;;;5.00;99.90;;;;;;5012229;28;20029;-82
2023/05/18 01:55:03;;;;;;;5.15;2.90;;;5.00;99.90;;;;;;5010192;28;20049;-81
2023/05/18 01:57:33;;;;;;;12.45;4.13;;;5.00;99.90;;;;;;5012326;28;20026;-81
2023/05/18 01:59:59;;;;;;;12.00;3.60;;;5.00;99.90;;;;;;5010910;28;20033;-81
2023/05/18 02:02:27;;;;;;;9.88;3.92;;;5.10;99.90;;;;;;5010284;28;20034;-81
2023/05/18 02:04:53;;;;;;;7.30;3.42;;;5.20;99.90;;;;;;5006637;28;20053;-81
2023/05/18 02:07:19;;;;;;;6.32;2.92;;;5.20;99.90;;;;;;5008247;28;20042;-81
2023/05/18 02:09:45;;;;;;;11.90;3.85;;;5.20;99.90;;;;;;5011924;28;20029;-81
2023/05/18 02:12:11;;;;;;;6.47;3.08;;;5.00;99.90;;;;;;5009202;28;20067;-80
2023/05/18 02:14:38;;;;;;;8.02;3.00;;;4.90;99.90;;;;;;5010723;28;20049;-81
2023/05/18 02:17:05;;;;;;;7.30;3.30;;;4.80;99.90;;;;;;5005425;28;20029;-80
2023/05/18 02:19:32;;;;;;;8.35;3.10;;;4.70;99.90;;;;;;5011441;28;20044;-82
2023/05/18 02:21:59;;;;;;;7.30;2.85;;;4.80;99.90;;;;;;5012138;28;20025;-82
2023/05/18 02:24:25;;;;;;;6.75;2.53;;;4.80;99.90;;;;;;5009766;28;20042;-81
2023/05/18 02:26:52;;;;;;;7.63;2.92;;;4.80;99.90;;;;;;5012131;28;20026;-82
2023/05/18 02:29:19;;;;;;;7.90;3.20;;;4.90;99.90;;;;;;5007699;28;20042;-80
2023/05/18 02:31:45;;;;;;;8.30;3.47;;;4.90;99.90;;;;;;5012086;28;20487;-82
2023/05/18 02:34:14;;;;;;;6.93;2.70;;;4.90;99.90;;;;;;5010587;28;20054;-81
2023/05/18 02:36:41;;;;;;;8.88;3.05;;;4.80;99.90;;;;;;5010204;28;20037;-81
2023/05/18 02:39:11;;;;;;;11.27;3.15;;;4.80;99.90;;;;;;4982335;28;20045;-80
2023/05/18 02:41:37;;;;;;;9.15;3.30;;;4.80;99.90;;;;;;5014453;28;20034;-82
2023/05/18 02:44:04;;;;;;;5.45;3.00;;;4.80;99.90;;;;;;4994101;28;20037;-80
2023/05/18 02:46:31;;;;;;;6.72;3.00;;;4.70;99.90;;;;;;5010786;28;20037;-81
2023/05/18 02:48:57;;;;;;;8.35;3.28;;;4.70;99.90;;;;;;5008863;28;20045;-82
2023/05/18 02:51:24;;;;;;;9.32;3.88;;;4.70;99.90;;;;;;5012307;28;20590;-81
2023/05/18 02:53:50;;;;;;;8.32;4.75;;;4.70;99.90;;;;;;5013132;28;20038;-82
2023/05/18 02:56:17;;;;;;;10.57;3.38;;;4.80;99.90;;;;;;5006106;28;20042;-81
2023/05/18 02:58:56;;;;;;;10.50;3.33;;;4.80;99.90;;;;;;5009174;28;20045;-81
2023/05/18 03:01:27;;;;;;;9.27;3.30;;;4.70;99.90;;;;;;5010589;28;20041;-81
2023/05/18 03:03:56;;;;;;;10.57;3.33;;;4.70;99.90;;;;;;5009103;28;20038;-82
2023/05/18 03:06:25;;;;;;;7.38;3.33;;;4.70;99.90;;;;;;5009486;28;20448;-81
2023/05/18 03:08:54;;;;;;;8.45;3.53;;;4.70;99.90;;;;;;5009815;28;20037;-82
2023/05/18 03:11:25;;;;;;;12.07;3.92;;;4.60;99.90;;;;;;5007075;28;20493;-82
2023/05/18 03:13:51;;;;;;;7.90;3.30;;;4.50;99.90;;;;;;5026009;28;20042;-82
2023/05/18 03:16:17;;;;;;;6.70;3.58;;;4.50;99.90;;;;;;5009199;28;20057;-82
2023/05/18 03:18:45;;;;;;;11.35;3.80;;;4.40;99.90;;;;;;5010284;28;20045;-82
2023/05/18 03:21:12;;;;;;;9.15;3.38;;;4.40;99.90;;;;;;5010642;28;20033;-81
2023/05/18 03:23:39;;;;;;;11.07;3.65;;;4.30;99.90;;;;;;5009775;28;20038;-81
2023/05/18 03:26:10;;;;;;;12.13;3.72;;;4.30;99.90;;;;;;5003203;28;20049;-81
2023/05/18 03:28:37;;;;;;;10.63;4.03;;;4.40;99.90;;;;;;5000760;28;20447;-83
2023/05/18 03:31:04;;;;;;;8.70;3.20;;;4.40;99.90;;;;;;5008703;28;20459;-83
2023/05/18 03:33:31;;;;;;;7.97;3.20;;;4.30;99.90;;;;;;5008943;28;20049;-83
2023/05/18 03:36:02;;;;;;;8.07;3.50;;;4.30;99.90;;;;;;5009863;28;20054;-83
2023/05/18 03:38:28;;;;;;;9.93;3.90;;;4.20;99.90;;;;;;5005894;28;20037;-82
2023/05/18 03:41:01;;;;;;;8.57;3.53;;;4.20;99.90;;;;;;4994065;28;20031;-81
2023/05/18 03:43:31;;;;;;;12.85;6.53;;;4.20;99.90;;;;;;5008113;28;20130;-81
2023/05/18 03:45:57;;;;;;;6.65;3.60;;;4.20;99.90;;;;;;5008061;28;20046;-82
2023/05/18 03:48:24;;;;;;;10.50;3.17;;;4.20;99.90;;;;;;5014221;28;20022;-82
2023/05/18 03:50:50;;;;;;;8.88;3.97;;;4.20;99.90;;;;;;5013538;28;20026;-81
2023/05/18 03:53:20;;;;;;;7.93;3.47;;;4.20;99.90;;;;;;5013747;28;20462;-82
2023/05/18 03:55:50;;;;;;;10.00;3.28;;;4.20;99.90;;;;;;5013164;28;20037;-82
2023/05/18 03:58:18;;;;;;;8.30;3.10;;;4.20;99.90;;;;;;5011649;28;20034;-82
2023/05/18 04:00:48;;;;;;;7.53;3.85;;;4.20;99.90;;;;;;5028342;28;20281;-83
2023/05/18 04:03:15;;;;;;;12.02;3.65;;;4.30;99.90;;;;;;5012327;28;20037;-81
2023/05/18 04:05:42;;;;;;;4.65;3.03;;;4.30;99.90;;;;;;5026381;28;20069;-81
2023/05/18 04:08:13;;;;;;;13.75;3.83;;;4.30;99.90;;;;;;5010103;28;20494;-80
2023/05/18 04:10:43;;;;;;;8.88;3.53;;;4.30;99.90;;;;;;5014285;28;20036;-82
2023/05/18 04:13:09;;;;;;;9.07;3.60;;;4.30;99.90;;;;;;5009124;28;20034;-80
2023/05/18 04:15:36;;;;;;;13.40;4.20;;;4.30;99.90;;;;;;5007713;28;20514;-81
2023/05/18 04:18:03;;;;;;;11.73;4.75;;;4.40;99.90;;;;;;4996451;28;20046;-83
2023/05/18 04:20:30;;;;;;;7.03;3.33;;;4.40;99.90;;;;;;5008937;28;20045;-82
2023/05/18 04:22:56;;;;;;;8.27;3.90;;;4.40;99.90;;;;;;5009359;28;20033;-83
2023/05/18 04:25:26;;;;;;;8.65;2.92;;;4.50;99.90;;;;;;5020584;28;20034;-82
2023/05/18 04:27:54;;;;;;;8.75;3.72;;;4.60;99.90;;;;;;5024542;28;20379;-82
2023/05/18 04:30:22;;;;;;;7.28;3.90;;;4.70;99.90;;;;;;5009088;28;20036;-82
2023/05/18 04:32:50;;;;;;;19.52;4.03;;;5.20;99.90;;;;;;5025919;28;20034;-81
2023/05/18 04:35:17;;;;;;;10.48;3.15;;;5.80;99.90;;;;;;5026844;28;20046;-83
2023/05/18 04:37:44;;;;;;;8.88;2.85;;;6.10;99.90;;;;;;4998516;28;20042;-82
2023/05/18 04:40:18;;;;;;;8.80;2.92;;;6.50;99.90;;;;;;5006125;28;20046;-83
2023/05/18 04:42:46;;;;;;;8.43;2.88;;;7.20;99.90;;;;;;5012036;28;20034;-83
2023/05/18 04:45:24;;;;;;;7.30;2.72;;;7.20;99.90;;;;;;5026687;28;20046;-82
2023/05/18 04:47:54;;;;;;;6.13;2.38;;;7.40;99.90;;;;;;5024540;28;20045;-82
2023/05/18 04:50:24;;;;;;;8.68;2.97;;;7.80;94.40;;;;;;5009549;28;20336;-83
2023/05/18 04:52:51;;;;;;;6.35;2.10;;;7.60;99.90;;;;;;5009837;28;20026;-82
2023/05/18 04:55:27;;;;;;;9.20;2.13;;;7.70;96.70;;;;;;5023191;28;20455;-82
2023/05/18 04:58:00;;;;;;;9.15;2.33;;;7.60;97.70;;;;;;5025029;28;20458;-82
2023/05/18 05:00:28;;;;;;;7.78;2.65;;;8.10;92.50;;;;;;5012511;28;20029;-81
2023/05/18 05:02:55;;;;;;;8.80;2.40;;;8.40;65.30;;;;;;5013780;28;20469;-82
2023/05/18 05:05:23;;;;;;;7.88;2.42;;;8.80;60.30;;;;;;5011219;28;20489;-81
2023/05/18 05:07:50;;;;;;;5.20;2.42;;;9.00;38.00;;;;;;5012754;28;20030;-81
2023/05/18 05:10:17;;;;;;;8.13;1.92;;;9.00;28.90;;;;;;5010170;28;20038;-82
2023/05/18 05:12:45;;;;;;;9.18;2.35;;;9.10;30.00;;;;;;5007382;28;20370;-83
2023/05/18 05:15:11;;;;;;;6.32;1.88;;;9.30;25.90;;;;;;5009374;28;20068;-81
2023/05/18 05:17:38;;;;;;;8.25;2.00;;;9.50;10.90;;;;;;5027247;28;20053;-83
2023/05/18 05:20:07;;;;;;;7.47;2.15;;;9.90;1.00;;;;;;5009574;28;20057;-82
2023/05/18 05:22:34;;;;;;;7.95;2.03;;;9.80;1.00;;;;;;5011454;28;20042;-83
2023/05/18 05:25:01;;;;;;;9.38;2.42;;;10.00;1.00;;;;;;5026669;28;20038;-82
2023/05/18 05:27:27;;;;;;;7.05;1.80;;;10.40;1.00;;;;;;5004040;28;20038;-83
2023/05/18 05:29:55;;;;;;;6.25;2.17;;;10.40;1.00;;;;;;5012955;28;20033;-82
2023/05/18 05:32:21;;;;;;;7.60;1.80;;;10.50;1.00;;;;;;5010189;28;20478;-84
2023/05/18 05:34:49;;;;;;;7.90;1.88;;;10.90;1.00;;;;;;4992805;28;20066;-84
2023/05/18 05:37:17;;;;;;;10.60;1.92;;;11.40;1.00;;;;;;5014108;28;20042;-84
2023/05/18 05:39:44;;;;;;;6.32;1.70;;;11.30;1.00;;;;;;5010667;28;20049;-85
2023/05/18 05:42:11;;;;;;;7.43;2.67;;;11.90;1.00;;;;;;5009991;28;20044;-81
2023/05/18 05:44:39;;;;;;;6.60;1.67;;;12.60;1.00;;;;;;5001848;28;20053;-83
2023/05/18 05:47:06;;;;;;;5.68;1.40;;;12.20;1.00;;;;;;5010370;28;20050;-87
2023/05/18 05:49:33;;;;;;;5.43;1.60;;;12.00;1.00;;;;;;5002817;28;20038;-83
2023/05/18 05:51:59;;;;;;;6.20;1.80;;;12.10;1.00;;;;;;4999621;28;20053;-90
2023/05/18 05:54:25;;;;;;;5.82;2.08;;;12.70;1.00;;;;;;5020909;28;20037;-88
2023/05/18 05:56:52;;;;;;;6.82;1.75;;;12.80;1.00;;;;;;5007870;28;20041;-84
2023/05/18 05:59:19;;;;;;;4.55;1.40;;;12.50;1.00;;;;;;5007301;28;20383;-82
2023/05/18 06:01:45;;;;;;;9.65;1.42;;;12.70;1.00;;;;;;5012461;28;20028;-82
2023/05/18 06:04:11;;;;;;;6.70;1.50;;;12.90;1.00;;;;;;5012338;28;20029;-84
2023/05/18 06:06:38;;;;;;;4.75;1.65;;;13.20;1.00;;;;;;5010558;28;20049;-85
2023/05/18 06:09:06;;;;;;;7.78;1.50;;;13.80;99.90;;;;;;5014070;28;20037;-85
2023/05/18 06:11:33;;;;;;;4.97;1.30;;;13.70;99.90;;;;;;5010598;28;20651;-79
2023/05/18 06:13:59;;;;;;;5.20;1.77;;;13.50;99.90;;;;;;5025608;28;20034;-86
2023/05/18 06:16:25;;;;;;;7.60;1.20;;;13.50;99.90;;;;;;5002838;28;20053;-83
2023/05/18 06:18:52;;;;;;;6.25;1.60;;;13.20;99.90;;;;;;5020606;28;20050;-90
2023/05/18 06:21:18;;;;;;;7.90;1.48;;;13.40;99.90;;;;;;5019244;28;20466;-85
2023/05/18 06:23:45;;;;;;;5.53;1.85;;;13.60;99.90;;;;;;5020054;28;20042;-85
2023/05/18 06:26:31;;;;;;;5.80;1.80;;;12.90;99.90;;;;;;5007875;28;20046;-86
2023/05/18 06:29:04;;;;;;;4.95;1.58;;;13.80;99.90;;;;;;5012083;28;20045;-86
2023/05/18 06:31:49;;;;;;;6.75;1.40;;;14.40;99.90;;;;;;5018306;28;20045;-83
2023/05/18 06:34:22;;;;;;;9.45;2.22;;;14.10;99.90;;;;;;5010801;28;20053;-85
2023/05/18 06:36:50;;;;;;;7.97;2.33;;;13.90;99.90;;;;;;4994000;28;20046;-87
2023/05/18 06:39:16;;;;;;;5.10;1.70;;;14.00;99.90;;;;;;5010834;28;20038;-86
2023/05/18 06:41:44;;;;;;;5.60;1.70;;;14.30;99.90;;;;;;5006855;28;20045;-83
2023/05/18 06:44:18;;;;;;;4.75;1.27;;;13.90;99.90;;;;;;4992305;28;20037;-86
2023/05/18 06:47:05;;;;;;;9.32;1.80;;;14.00;99.90;;;;;;5007083;28;20383;-93
2023/05/18 06:49:31;;;;;;;9.90;1.73;;;14.00;99.90;;;;;;5024884;28;20042;-85
2023/05/18 06:51:57;;;;;;;4.90;1.33;;;14.50;99.90;;;;;;4999018;28;20378;-87
2023/05/18 06:54:23;;;;;;;5.85;2.50;;;14.60;99.90;;;;;;5011577;28;20021;-84
2023/05/18 06:56:50;;;;;;;10.00;2.63;;;14.60;99.90;;;;;;4985724;28;20041;-87
2023/05/18 06:59:16;;;;;;;4.65;1.45;;;14.50;99.90;;;;;;5026500;28;20393;-84
2023/05/18 07:01:43;;;;;;;4.22;1.52;;;14.40;99.90;;;;;;5007861;28;20034;-87
2023/05/18 07:04:10;;;;;;;6.80;2.10;;;14.90;99.90;;;;;;5005585;28;20041;-83
2023/05/18 07:06:36;;;;;;;4.90;1.52;;;14.60;99.90;;;;;;5022101;28;20040;-85
2023/05/18 07:09:03;;;;;;;5.35;1.70;;;14.50;99.90;;;;;;5024820;28;20037;-92
2023/05/18 07:11:29;;;;;;;4.00;1.75;;;14.70;99.90;;;;;;5002458;28;20037;-82
2023/05/18 07:13:55;;;;;;;7.82;2.20;;;14.90;99.90;;;;;;5005418;28;20026;-81
2023/05/18 07:16:21;;;;;;;5.85;1.58;;;14.70;99.90;;;;;;4997548;28;20034;-88
2023/05/18 07:18:47;;;;;;;13.48;7.20;;;14.70;99.90;;;;;;4986150;28;20038;-85
2023/05/18 07:21:13;;;;;;;5.47;2.10;;;14.80;99.90;;;;;;5006409;28;20036;-87
2023/05/18 07:23:40;;;;;;;8.23;1.50;;;15.10;99.90;;;;;;5006688;28;20030;-84
2023/05/18 07:26:09;;;;;;;6.65;1.70;;;14.80;99.90;;;;;;5013496;28;20032;-89
2023/05/18 07:28:35;;;;;;;3.80;1.40;;;15.50;99.90;;;;;;5027487;28;20057;-88
2023/05/18 07:31:02;;;;;;;5.47;1.55;;;15.40;99.90;;;;;;5014083;28;20037;-85
2023/05/18 07:33:28;;;;;;;8.50;2.25;;;15.10;99.90;;;;;;5011611;28;20025;-86
2023/05/18 07:35:54;;;;;;;6.18;1.90;;;15.30;99.90;;;;;;5008459;28;20038;-87
2023/05/18 07:38:20;;;;;;;6.15;2.08;;;15.90;99.90;;;;;;5006724;28;20030;-92
2023/05/18 07:40:46;;;;;;;7.28;2.28;;;15.30;99.90;;;;;;5012682;28;20025;-88
2023/05/18 07:43:14;;;;;;;5.82;1.55;;;15.50;99.90;;;;;;5016185;28;20049;-89
2023/05/18 07:45:40;;;;;;;5.68;1.63;;;15.80;99.90;;;;;;5016306;28;20038;-89
2023/05/18 07:48:06;;;;;;;7.18;1.73;;;15.80;99.90;;;;;;5015370;28;20041;-88
2023/05/18 07:50:33;;;;;;;4.35;1.52;;;16.00;99.90;;;;;;5030262;28;20037;-84
2023/05/18 07:52:59;;;;;;;5.47;1.50;;;16.20;99.90;;;;;;5015213;28;20026;-88
2023/05/18 07:55:26;;;;;;;11.18;2.78;;;16.10;99.90;;;;;;5029143;28;20029;-88
2023/05/18 07:57:52;;;;;;;4.75;1.42;;;16.10;99.90;;;;;;5013742;28;20463;-85
2023/05/18 08:00:19;;;;;;;10.85;1.77;;;16.50;99.90;;;;;;5015035;28;20033;-88
2023/05/18 08:02:45;;;;;;;5.18;1.63;;;16.10;99.90;;;;;;5011594;28;20451;-94
2023/05/18 08:05:11;;;;;;;5.97;1.75;;;16.30;99.90;;;;;;5015124;28;20455;-95
2023/05/18 08:07:37;;;;;;;4.97;1.63;;;16.20;99.90;;;;;;5013771;28;20045;-85
2023/05/18 08:10:04;;;;;;;5.65;1.48;;;16.10;99.90;;;;;;5015518;28;20470;-84
2023/05/18 08:12:30;;;;;;;5.60;1.52;;;16.10;99.90;;;;;;5014797;28;20105;-85
2023/05/18 08:14:56;;;;;;;10.00;2.22;;;16.70;99.90;;;;;;4990700;28;20038;-87
2023/05/18 08:17:23;;;;;;;6.05;1.42;;;16.60;99.90;;;;;;5008977;28;20045;-84
2023/05/18 08:19:49;;;;;;;9.73;1.75;;;16.80;99.90;;;;;;5014893;28;20064;-82
2023/05/18 08:22:15;;;;;;;7.65;2.10;;;17.50;99.90;;;;;;5013536;28;20042;-83
2023/05/18 08:24:42;;;;;;;3.45;1.30;;;17.60;99.90;;;;;;5027468;28;20049;-93
2023/05/18 08:27:10;;;;;;;6.05;1.70;;;17.00;99.90;;;;;;5017506;28;20057;-89
2023/05/18 08:29:36;;;;;;;4.05;1.67;;;16.50;99.90;;;;;;5015653;28;20052;-83
2023/05/18 08:32:05;;;;;;;6.70;1.58;;;17.00;99.90;;;;;;5031001;28;20033;-93
2023/05/18 08:34:31;;;;;;;6.43;1.42;;;16.90;99.90;;;;;;5011293;28;20058;-84
2023/05/18 08:36:58;;;;;;;5.20;1.70;;;16.80;99.90;;;;;;5011764;28;20045;-82
2023/05/18 08:39:25;;;;;;;5.32;1.60;;;17.90;99.90;;;;;;5013516;28;20033;-86
2023/05/18 08:42:05;;;;;;;5.75;1.55;;;16.80;99.90;;;;;;5020480;28;20034;-88
2023/05/18 08:45:03;;;;;;;5.68;2.78;;;17.80;99.90;;;;;;5013371;28;20493;-84
2023/05/18 08:47:31;;;;;;;5.55;1.55;;;17.50;99.90;;;;;;5017465;28;20025;-85
2023/05/18 08:50:00;;;;;;;5.45;1.42;;;18.20;99.90;;;;;;5022175;28;20037;-84
2023/05/18 08:52:33;;;;;;;7.03;1.58;;;17.90;99.90;;;;;;5016075;28;20041;-83
2023/05/18 08:55:01;;;;;;;7.47;2.00;;;17.20;99.90;;;;;;5008157;28;20034;-85
2023/05/18 08:57:29;;;;;;;10.55;2.00;;;17.00;99.90;;;;;;4998924;28;20049;-84
2023/05/18 08:59:56;;;;;;;7.22;1.73;;;17.20;99.90;;;;;;5029562;28;20040;-85
2023/05/18 09:02:23;;;;;;;6.85;1.98;;;17.40;99.90;;;;;;4998238;28;20038;-88
2023/05/18 09:04:50;;;;;;;6.63;2.03;;;17.00;99.90;;;;;;5013319;28;20046;-83
2023/05/18 09:07:18;;;;;;;6.45;1.95;;;16.80;99.90;;;;;;5011982;28;20034;-85
2023/05/18 09:09:46;;;;;;;6.70;2.13;;;17.00;99.90;;;;;;4996391;28;20109;-84
2023/05/18 09:12:15;;;;;;;7.28;1.77;;;16.70;99.90;;;;;;5012615;28;20037;-82
2023/05/18 09:14:42;;;;;;;6.55;1.77;;;16.40;99.90;;;;;;5012879;28;20108;-85
2023/05/18 09:17:09;;;;;;;6.28;1.63;;;16.00;99.90;;;;;;5017068;28;20336;-85
2023/05/18 09:19:35;;;;;;;10.43;1.88;;;15.70;99.90;;;;;;5011246;28;20041;-84
2023/05/18 09:22:02;;;;;;;11.07;1.85;;;16.20;99.90;;;;;;5011891;28;20042;-80
2023/05/18 09:24:28;;;;;;;5.15;1.52;;;17.40;99.90;;;;;;5011079;28;20347;-82
2023/05/18 09:26:55;;;;;;;7.13;1.52;;;18.10;99.90;;;;;;5010174;28;20112;-84
2023/05/18 09:29:23;;;;;;;3.65;1.30;;;17.50;99.90;;;;;;5010874;28;20030;-83
2023/05/18 09:31:49;;;;;;;4.95;1.58;;;17.00;99.90;;;;;;5016300;28;20026;-81
2023/05/18 09:34:18;;;;;;;6.70;1.42;;;18.60;99.90;;;;;;5008787;28;20046;-83
2023/05/18 09:36:51;;;;;;;5.20;1.75;;;17.60;99.90;;;;;;5011033;28;20056;-83
2023/05/18 09:39:17;;;;;;;6.05;1.73;;;17.50;99.90;;;;;;5011526;28;20037;-86
2023/05/18 09:41:43;;;;;;;4.90;1.35;;;18.40;99.90;;;;;;5012538;28;20030;-80
2023/05/18 09:44:11;;;;;;;6.80;1.30;;;17.90;99.90;;;;;;5012199;28;20045;-83
2023/05/18 09:46:38;;;;;;;4.65;1.40;;;18.20;99.90;;;;;;4994705;28;20049;-83
2023/05/18 09:49:06;;;;;;;3.92;1.45;;;18.90;99.90;;;;;;5013216;28;20034;-83
2023/05/18 09:51:36;;;;;;;5.55;2.15;;;19.70;99.90;;;;;;5013601;28;20038;-81
2023/05/18 09:54:05;;;;;;;4.30;1.52;;;19.20;99.90;;;;;;5014532;28;20057;-80
2023/05/18 09:56:35;;;;;;;7.32;1.67;;;18.60;99.90;;;;;;5011491;28;20034;-86
2023/05/18 09:59:12;;;;;;;9.60;2.28;;;17.90;99.90;;;;;;5028139;28;20379;-82
2023/05/18 10:02:04;;;;;;;5.20;1.45;;;18.00;99.90;;;;;;5003372;28;20044;-83
2023/05/18 10:04:49;;;;;;;8.63;1.88;;;18.00;99.90;;;;;;5010954;28;20030;-81
2023/05/18 10:07:16;;;;;;;9.50;2.85;;;18.20;99.90;;;;;;5008268;28;20038;-83
2023/05/18 10:09:44;;;;;;;3.65;1.10;;;18.40;99.90;;;;;;5016327;28;20041;-81
2023/05/18 10:12:15;;;;;;;8.93;1.80;;;18.20;99.90;;;;;;5010398;28;20049;-79
2023/05/18 10:14:43;;;;;;;3.72;1.40;;;17.90;99.90;;;;;;5008046;28;20030;-82
2023/05/18 10:17:14;;;;;;;6.57;1.40;;;17.80;99.90;;;;;;5009016;28;20042;-79
2023/05/18 10:19:41;;;;;;;9.10;1.83;;;17.80;99.90;;;;;;5009686;28;20418;-81
2023/05/18 10:22:09;;;;;;;8.20;1.63;;;17.00;99.90;;;;;;5022176;28;20486;-84
2023/05/18 10:24:40;;;;;;;3.83;1.50;;;17.20;99.90;;;;;;5022911;28;20034;-82
2023/05/18 10:27:08;;;;;;;5.13;1.92;;;17.10;99.90;;;;;;5022976;28;20041;-83
2023/05/18 10:29:38;;;;;;;9.00;2.00;;;17.20;99.90;;;;;;5010353;28;20030;-80
2023/05/18 10:32:05;;;;;;;5.90;1.45;;;17.30;99.90;;;;;;5009317;28;20474;-84
2023/05/18 10:34:32;;;;;;;9.85;2.15;;;17.30;99.90;;;;;;5009164;28;20359;-85
2023/05/18 10:37:03;;;;;;;5.63;1.48;;;17.70;99.90;;;;;;5011093;28;20034;-84
2023/05/18 10:39:32;;;;;;;3.92;1.70;;;17.80;99.90;;;;;;5011772;28;20447;-83
2023/05/18 10:42:01;;;;;;;5.57;1.40;;;17.60;99.90;;;;;;5011836;28;20057;-83
2023/05/18 10:44:28;;;;;;;6.47;1.88;;;17.20;99.90;;;;;;5009855;28;20036;-81
2023/05/18 10:46:54;;;;;;;6.10;2.72;;;17.10;99.90;;;;;;5011152;28;20034;-79
2023/05/18 10:49:24;;;;;;;6.05;1.70;;;17.30;99.90;;;;;;5012769;28;20148;-84
2023/05/18 10:51:53;;;;;;;7.55;2.40;;;17.60;99.90;;;;;;5011755;28;20029;-78
2023/05/18 10:54:23;;;;;;;4.30;1.70;;;17.40;99.90;;;;;;5012935;28;20038;-82
2023/05/18 10:56:52;;;;;;;7.70;1.42;;;17.70;99.90;;;;;;5014263;28;20068;-85
2023/05/18 10:59:22;;;;;;;5.95;1.65;;;17.60;99.90;;;;;;5015803;28;20030;-86
2023/05/18 11:01:51;;;;;;;4.72;1.90;;;17.90;99.90;;;;;;5015675;28;20034;-83
2023/05/18 11:04:28;;;;;;;6.05;2.05;;;17.80;99.90;;;;;;5016190;28;20033;-79
2023/05/18 11:06:59;;;;;;;6.78;1.77;;;17.90;99.90;;;;;;5012584;28;20038;-76
2023/05/18 11:09:27;;;;;;;9.27;2.10;;;17.40;99.90;;;;;;5004984;28;20030;-80
2023/05/18 11:11:56;;;;;;;15.80;2.15;;;17.20;99.90;;;;;;5016144;28;20048;-80
2023/05/18 11:14:54;;;;;;;6.97;2.03;;;17.30;99.90;;;;;;5015407;28;20030;-79
2023/05/18 11:17:24;;;;;;;5.78;1.77;;;17.30;99.90;;;;;;5010325;28;20045;-84
2023/05/18 11:20:11;;;;;;;;;;;17.20;99.90;;;;;;5015461;28;20041;-79
2023/05/18 11:22:56;;;;;;;5.15;1.42;;;17.30;99.90;;;;;;5012236;28;20346;-80
2023/05/18 11:25:31;;;;;;;9.88;1.75;;;17.60;99.90;;;;;;5028041;28;20034;-79
2023/05/18 11:28:06;;;;;;;7.07;1.63;;;17.90;99.90;;;;;;5014118;28;20037;-79
2023/05/18 11:30:32;;;;;;;6.35;1.83;;;17.80;99.90;;;;;;5011980;28;20042;-80
2023/05/18 11:33:08;;;;;;;6.80;2.10;;;17.60;99.90;;;;;;5015253;28;20026;-79
2023/05/18 11:35:53;;;;;;;5.43;1.50;;;17.60;99.90;;;;;;5013328;28;20038;-77
2023/05/18 11:38:20;;;;;;;7.07;2.60;;;17.70;99.90;;;;;;5011407;28;20029;-78
2023/05/18 11:40:47;;;;;;;5.97;1.70;;;17.80;99.90;;;;;;5027191;28;20444;-79
2023/05/18 11:43:20;;;;;;;8.43;2.35;;;18.20;99.90;;;;;;5029751;28;20042;-77
2023/05/18 11:45:55;;;;;;;6.32;1.67;;;18.10;99.90;;;;;;5010034;28;20057;-79
2023/05/18 11:48:25;;;;;;;8.13;1.42;;;17.90;99.90;;;;;;5020943;28;20026;-83
2023/05/18 11:50:53;;;;;;;6.68;1.83;;;18.00;99.90;;;;;;5014735;28;20049;-80
2023/05/18 11:53:24;;;;;;;8.43;2.28;;;18.20;99.90;;;;;;5014862;28;20029;-80
2023/05/18 11:55:55;;;;;;;6.35;1.50;;;18.30;99.90;;;;;;5014713;28;20021;-84
2023/05/18 11:58:25;;;;;;;6.70;2.60;;;18.20;99.90;;;;;;5009785;28;20058;-79
2023/05/18 12:00:52;;;;;;;5.40;1.90;;;17.80;99.90;;;;;;5014455;28;20021;-82
2023/05/18 12:03:23;;;;;;;6.00;1.60;;;17.60;99.90;;;;;;5011306;28;20053;-83
2023/05/18 12:05:49;;;;;;;7.07;1.92;;;18.10;99.90;;;;;;5014112;28;20466;-81
2023/05/18 12:08:20;;;;;;;3.85;1.30;;;18.10;99.90;;;;;;5012807;28;20052;-85
2023/05/18 12:10:49;;;;;;;6.00;1.80;;;18.20;99.90;;;;;;5010752;28;20025;-78
2023/05/18 12:13:16;;;;;;;3.88;1.25;;;18.20;99.90;;;;;;5013015;28;20037;-83
2023/05/18 12:15:43;;;;;;;5.20;1.40;;;18.10;99.90;;;;;;5013633;28;20030;-81
2023/05/18 12:18:09;;;;;;;4.63;1.55;;;17.90;99.90;;;;;;5011477;28;20460;-78
2023/05/18 12:20:39;;;;;;;6.68;1.40;;;18.00;99.90;;;;;;5013631;28;20033;-85
2023/05/18 12:23:06;;;;;;;5.03;1.45;;;17.80;99.90;;;;;;5028786;28;20045;-82
2023/05/18 12:25:32;;;;;;;3.95;1.40;;;17.90;99.90;;;;;;5028337;28;20031;-80
2023/05/18 12:27:59;;;;;;;6.00;2.10;;;17.80;99.90;;;;;;5012543;28;20033;-79
2023/05/18 12:30:34;;;;;;;4.57;1.48;;;18.10;99.90;;;;;;5013825;28;20041;-85
2023/05/18 12:33:03;;;;;;;7.07;1.90;;;18.30;99.90;;;;;;5014428;28;20030;-82
2023/05/18 12:35:30;;;;;;;6.57;1.70;;;18.70;99.90;;;;;;5013668;28;20459;-89
2023/05/18 12:37:59;;;;;;;7.15;1.73;;;19.00;99.90;;;;;;5012605;28;20037;-78
2023/05/18 12:40:26;;;;;;;8.82;2.88;;;18.90;99.90;;;;;;5013931;28;20084;-82
2023/05/18 12:42:53;;;;;;;3.97;1.42;;;18.80;99.90;;;;;;5006782;28;20040;-79
2023/05/18 12:45:21;;;;;;;4.35;1.48;;;19.10;99.90;;;;;;5013470;28;20030;-81
2023/05/18 12:47:52;;;;;;;9.30;1.30;;;19.10;99.90;;;;;;5011826;28;20050;-79
2023/05/18 12:50:22;;;;;;;6.47;1.35;;;18.60;99.90;;;;;;4996807;28;20044;-78
2023/05/18 12:52:49;;;;;;;8.40;1.35;;;18.20;99.90;;;;;;5014167;28;20067;-81
2023/05/18 12:55:23;;;;;;;8.95;1.88;;;18.00;99.90;;;;;;5013246;28;20029;-82
2023/05/18 12:58:03;;;;;;;6.03;1.52;;;18.40;99.90;;;;;;5012644;28;20054;-79
2023/05/18 13:00:36;;;;;;;3.30;1.30;;;18.60;99.90;;;;;;5013169;28;20026;-82